createdAt,value
2023-02-19T00:01:26.914Z,99596.03
2023-02-19T00:04:02.794Z,99596.03
2023-02-19T00:06:32.141Z,99592.00
2023-02-19T00:08:58.922Z,99594.66
2023-02-19T00:11:29.618Z,99597.25
2023-02-19T00:13:57.906Z,99602.47
2023-02-19T00:16:28.278Z,99603.66
2023-02-19T00:18:56.643Z,99597.13
2023-02-19T00:21:24.106Z,99606.13
2023-02-19T00:23:52.843Z,99588.75
2023-02-19T00:26:19.963Z,99591.06
2023-02-19T00:28:47.892Z,99592.38
2023-02-19T00:31:20.606Z,99591.19
2023-02-19T00:33:48.662Z,99595.28
2023-02-19T00:36:16.038Z,99593.97
2023-02-19T00:38:43.841Z,99586.06
2023-02-19T00:41:21.451Z,99591.91
2023-02-19T00:43:59.172Z,99587.78
2023-02-19T00:46:27.850Z,99585.19
2023-02-19T00:48:55.080Z,99593.38
2023-02-19T00:51:23.297Z,99597.38
2023-02-19T00:53:49.861Z,99585.06
2023-02-19T00:56:16.396Z,99586.50
2023-02-19T00:58:43.248Z,99572.00
2023-02-19T01:01:11.378Z,99577.22
2023-02-19T01:03:39.137Z,99559.78
2023-02-19T01:06:07.286Z,99559.22
2023-02-19T01:08:34.327Z,99565.22
2023-02-19T01:11:02.632Z,99565.34
2023-02-19T01:13:29.559Z,99567.38
2023-02-19T01:16:06.762Z,99563.00
2023-02-19T01:18:34.829Z,99562.75
2023-02-19T01:21:07.243Z,99553.38
2023-02-19T01:23:34.430Z,99555.22
2023-02-19T01:26:05.018Z,99561.63
2023-02-19T01:28:32.060Z,99576.84
2023-02-19T01:31:07.037Z,99566.53
2023-02-19T01:33:34.844Z,99554.97
2023-02-19T01:36:04.376Z,99552.03
2023-02-19T01:38:30.768Z,99541.75
2023-02-19T01:40:59.681Z,99545.69
2023-02-19T01:43:26.821Z,99543.19
2023-02-19T01:45:53.999Z,99540.88
2023-02-19T01:48:25.593Z,99545.00
2023-02-19T01:50:59.626Z,99537.50
2023-02-19T01:53:29.989Z,99545.13
2023-02-19T01:55:59.806Z,99539.75
2023-02-19T01:58:31.283Z,99546.13
2023-02-19T02:00:59.242Z,99538.03
2023-02-19T02:03:25.790Z,99542.53
2023-02-19T02:06:33.042Z,99535.09
2023-02-19T02:09:19.252Z,99534.50
2023-02-19T02:11:50.209Z,99525.81
2023-02-19T02:14:19.631Z,99527.06
2023-02-19T02:17:20.183Z,99534.25
2023-02-19T02:20:12.116Z,99539.34
2023-02-19T02:22:52.290Z,99542.41
2023-02-19T02:25:49.670Z,99530.91
2023-02-19T02:28:34.833Z,99539.06
2023-02-19T02:31:10.052Z,99540.66
2023-02-19T02:34:07.548Z,99544.91
2023-02-19T02:36:38.298Z,99538.13
2023-02-19T02:39:10.178Z,99536.75
2023-02-19T02:42:11.773Z,99528.97
2023-02-19T02:44:40.068Z,99533.84
2023-02-19T02:47:29.684Z,99525.44
2023-02-19T02:50:08.140Z,99536.41
2023-02-19T02:52:57.805Z,99531.25
2023-02-19T02:55:25.513Z,99521.94
2023-02-19T02:57:52.514Z,99524.97
2023-02-19T03:00:19.115Z,99522.75
2023-02-19T03:02:45.662Z,99520.81
2023-02-19T03:05:44.169Z,99521.09
2023-02-19T03:08:18.933Z,99511.81
2023-02-19T03:11:21.083Z,99513.06
2023-02-19T03:14:08.193Z,99521.34
2023-02-19T03:16:56.225Z,99515.91
2023-02-19T03:19:25.973Z,99518.25
2023-02-19T03:22:15.743Z,99514.03
2023-02-19T03:25:08.053Z,99517.66
2023-02-19T03:27:36.112Z,99521.34
2023-02-19T03:30:08.799Z,99529.84
2023-02-19T03:33:13.861Z,99529.13
2023-02-19T03:35:49.038Z,99538.25
2023-02-19T03:38:31.787Z,99529.38
2023-02-19T03:41:10.287Z,99523.13
2023-02-19T03:43:53.765Z,99542.63
2023-02-19T03:46:38.905Z,99540.78
2023-02-19T03:49:28.949Z,99542.34
2023-02-19T03:52:33.674Z,99540.78
2023-02-19T03:55:06.073Z,99551.75
2023-02-19T03:57:51.226Z,99554.69
2023-02-19T04:00:27.517Z,99560.91
2023-02-19T04:03:00.649Z,99557.75
2023-02-19T04:05:32.398Z,99553.72
2023-02-19T04:08:06.248Z,99559.31
2023-02-19T04:10:33.943Z,99570.25
2023-02-19T04:13:06.782Z,99574.53
2023-02-19T04:15:36.181Z,99576.25
2023-02-19T04:18:07.674Z,99580.72
2023-02-19T04:20:42.298Z,99579.34
2023-02-19T04:23:09.297Z,99590.34
2023-02-19T04:25:38.985Z,99590.47
2023-02-19T04:28:05.906Z,99596.41
2023-02-19T04:30:32.490Z,99596.91
2023-02-19T04:32:59.097Z,99601.28
2023-02-19T04:35:25.587Z,99608.69
2023-02-19T04:37:52.661Z,99603.19
2023-02-19T04:40:19.547Z,99594.81
2023-02-19T04:42:45.958Z,99604.69
2023-02-19T04:45:12.474Z,99609.19
2023-02-19T04:47:38.899Z,99616.50
2023-02-19T04:50:05.771Z,99626.47
2023-02-19T04:52:33.312Z,99616.03
2023-02-19T04:54:59.727Z,99621.41
2023-02-19T04:57:26.701Z,99623.78
2023-02-19T04:59:53.186Z,99634.03
2023-02-19T05:02:19.989Z,99625.03
2023-02-19T05:04:46.468Z,99616.28
2023-02-19T05:07:13.041Z,99623.78
2023-02-19T05:09:39.445Z,99623.84
2023-02-19T05:12:06.581Z,99623.84
2023-02-19T05:14:32.955Z,99629.16
2023-02-19T05:16:59.889Z,99625.16
2023-02-19T05:19:26.263Z,99641.09
2023-02-19T05:21:52.755Z,99639.66
2023-02-19T05:24:19.269Z,99630.75
2023-02-19T05:26:46.320Z,99646.31
2023-02-19T05:29:12.697Z,99642.56
2023-02-19T05:31:39.627Z,99652.28
2023-02-19T05:34:06.297Z,99653.88
2023-02-19T05:36:32.726Z,99652.91
2023-02-19T05:38:59.690Z,99638.56
2023-02-19T05:41:29.389Z,99637.09
2023-02-19T05:43:57.249Z,99652.56
2023-02-19T05:46:26.582Z,99660.09
2023-02-19T05:48:54.192Z,99658.88
2023-02-19T05:51:23.251Z,99661.19
2023-02-19T05:53:50.703Z,99669.56
2023-02-19T05:56:41.492Z,99673.84
2023-02-19T05:59:15.931Z,99687.94
2023-02-19T06:01:42.768Z,99671.16
2023-02-19T06:04:11.323Z,99674.81
2023-02-19T06:06:38.605Z,99676.25
2023-02-19T06:09:06.750Z,99680.03
2023-02-19T06:11:33.274Z,99684.16
2023-02-19T06:13:59.930Z,99699.72
2023-02-19T06:16:26.870Z,99702.50
2023-02-19T06:18:53.420Z,99715.03
2023-02-19T06:21:20.453Z,99711.66
2023-02-19T06:23:47.192Z,99706.91
2023-02-19T06:26:22.759Z,99723.78
2023-02-19T06:28:50.946Z,99721.22
2023-02-19T06:31:19.262Z,99718.94
2023-02-19T06:33:46.630Z,99713.22
2023-02-19T06:36:16.432Z,99708.97
2023-02-19T06:38:43.982Z,99708.25
2023-02-19T06:41:12.351Z,99719.06
2023-02-19T06:43:40.664Z,99722.94
2023-02-19T06:46:07.823Z,99732.44
2023-02-19T06:48:35.711Z,99727.44
2023-02-19T06:51:02.868Z,99725.38
2023-02-19T06:53:29.707Z,99737.66
2023-02-19T06:56:05.388Z,99730.38
2023-02-19T06:58:33.394Z,99729.75
2023-02-19T07:01:00.087Z,99731.44
2023-02-19T07:03:26.736Z,99750.06
2023-02-19T07:05:53.541Z,99752.72
2023-02-19T07:08:20.241Z,99752.84
2023-02-19T07:10:55.433Z,99758.06
2023-02-19T07:13:21.831Z,99764.88
2023-02-19T07:15:49.965Z,99763.53
2023-02-19T07:18:17.531Z,99765.88
2023-02-19T07:20:44.091Z,99787.63
2023-02-19T07:23:10.520Z,99780.19
2023-02-19T07:25:37.979Z,99789.22
2023-02-19T07:28:04.741Z,99792.63
2023-02-19T07:30:31.342Z,99789.72
2023-02-19T07:32:57.939Z,99792.63
2023-02-19T07:35:24.429Z,99783.25
2023-02-19T07:37:51.052Z,99795.25
2023-02-19T07:40:17.690Z,99796.75
2023-02-19T07:42:44.221Z,99804.03
2023-02-19T07:45:10.635Z,99807.94
2023-02-19T07:47:37.265Z,99809.75
2023-02-19T07:50:04.120Z,99813.88
2023-02-19T07:52:30.737Z,99822.38
2023-02-19T07:54:57.133Z,99824.00
2023-02-19T07:57:23.543Z,99822.16
2023-02-19T07:59:50.058Z,99825.31
2023-02-19T08:02:37.211Z,99828.97
2023-02-19T08:05:05.760Z,99836.63
2023-02-19T08:07:34.241Z,99835.19
2023-02-19T08:10:19.670Z,99839.66
2023-02-19T08:13:04.709Z,99845.72
2023-02-19T08:15:32.952Z,99851.19
2023-02-19T08:17:59.501Z,99854.22
2023-02-19T08:20:25.987Z,99864.34
2023-02-19T08:22:52.969Z,99865.41
2023-02-19T08:25:19.388Z,99859.00
2023-02-19T08:27:46.039Z,99868.22
2023-02-19T08:30:13.325Z,99872.59
2023-02-19T08:32:39.735Z,99884.63
2023-02-19T08:35:06.311Z,99879.78
2023-02-19T08:37:32.843Z,99877.59
2023-02-19T08:39:59.255Z,99884.78
2023-02-19T08:42:30.787Z,99887.69
2023-02-19T08:44:57.245Z,99896.44
2023-02-19T08:47:23.952Z,99911.03
2023-02-19T08:49:50.336Z,99904.84
2023-02-19T08:52:16.834Z,99910.09
2023-02-19T08:54:43.245Z,99910.50
2023-02-19T08:57:10.109Z,99914.97
2023-02-19T08:59:36.573Z,99917.63
2023-02-19T09:02:03.555Z,99913.81
2023-02-19T09:04:30.185Z,99910.81
2023-02-19T09:06:58.044Z,99913.03
2023-02-19T09:09:24.467Z,99908.88
2023-02-19T09:11:51.114Z,99911.28
2023-02-19T09:14:17.618Z,99919.56
2023-02-19T09:16:44.046Z,99916.63
2023-02-19T09:19:10.967Z,99911.03
2023-02-19T09:21:37.365Z,99911.53
2023-02-19T09:24:04.449Z,99909.31
2023-02-19T09:26:30.869Z,99922.72
2023-02-19T09:28:57.288Z,99925.25
2023-02-19T09:31:24.563Z,99922.78
2023-02-19T09:33:51.284Z,99929.00
2023-02-19T09:36:18.730Z,99921.84
2023-02-19T09:38:45.569Z,99929.88
2023-02-19T09:41:23.619Z,99932.13
2023-02-19T09:43:50.525Z,99944.25
2023-02-19T09:46:26.185Z,99940.56
2023-02-19T09:48:55.810Z,99948.50
2023-02-19T09:51:25.165Z,99947.41
2023-02-19T09:53:53.920Z,99950.59
2023-02-19T09:56:20.370Z,99950.31
2023-02-19T09:58:50.774Z,99949.59
2023-02-19T10:01:18.321Z,99957.19
2023-02-19T10:03:48.298Z,99959.16
2023-02-19T10:06:27.100Z,99960.63
2023-02-19T10:08:59.993Z,99961.13
2023-02-19T10:11:28.378Z,99965.75
2023-02-19T10:14:02.132Z,99964.63
2023-02-19T10:16:29.522Z,99968.91
2023-02-19T10:18:56.597Z,99961.63
2023-02-19T10:21:26.188Z,99958.69
2023-02-19T10:23:57.317Z,99960.78
2023-02-19T10:26:24.583Z,99960.84
2023-02-19T10:28:51.165Z,99966.47
2023-02-19T10:31:21.682Z,99979.47
2023-02-19T10:33:54.054Z,99981.44
2023-02-19T10:36:32.822Z,99988.81
2023-02-19T10:39:01.804Z,99992.94
2023-02-19T10:41:29.112Z,99998.78
2023-02-19T10:44:16.246Z,100002.00
2023-02-19T10:46:48.204Z,100019.19
2023-02-19T10:49:40.100Z,100017.69
2023-02-19T10:52:23.033Z,100024.00
2023-02-19T10:55:09.472Z,100019.59
2023-02-19T10:57:37.697Z,100023.38
2023-02-19T11:00:16.630Z,100029.63
2023-02-19T11:02:44.837Z,100035.25
2023-02-19T11:05:17.297Z,100047.06
2023-02-19T11:07:56.633Z,100036.72
2023-02-19T11:10:25.990Z,100043.31
2023-02-19T11:12:55.820Z,100042.59
2023-02-19T11:15:27.547Z,100045.91
2023-02-19T11:17:56.470Z,100059.56
2023-02-19T11:20:23.764Z,100048.75
2023-02-19T11:23:04.878Z,100050.16
2023-02-19T11:25:31.488Z,100045.28
2023-02-19T11:27:58.235Z,100059.88
2023-02-19T11:30:30.505Z,100054.91
2023-02-19T11:33:16.007Z,100061.22
2023-02-19T11:35:44.192Z,100065.84
2023-02-19T11:38:13.500Z,100067.06
2023-02-19T11:41:04.832Z,100059.22
2023-02-19T11:43:34.263Z,100055.91
2023-02-19T11:46:17.780Z,100072.78
2023-02-19T11:49:06.101Z,100067.66
2023-02-19T11:51:52.319Z,100075.69
2023-02-19T11:54:38.886Z,100086.13
2023-02-19T11:57:15.470Z,100071.28
2023-02-19T11:59:55.723Z,100069.78
2023-02-19T12:02:58.385Z,100073.09
2023-02-19T12:05:40.090Z,100068.47
2023-02-19T12:08:38.747Z,100065.59
2023-02-19T12:11:25.158Z,100074.69
2023-02-19T12:14:13.599Z,100069.22
2023-02-19T12:17:17.204Z,100063.63
2023-02-19T12:20:19.330Z,100056.56
2023-02-19T12:22:51.774Z,100058.53
2023-02-19T12:25:23.789Z,100053.25
2023-02-19T12:28:07.237Z,100049.22
2023-02-19T12:31:03.162Z,100050.84
2023-02-19T12:33:38.367Z,100047.31
2023-02-19T12:36:20.408Z,100049.81
2023-02-19T12:39:02.836Z,100051.91
2023-02-19T12:41:57.110Z,100054.63
2023-02-19T12:44:48.400Z,100051.22
2023-02-19T12:47:34.019Z,100055.09
2023-02-19T12:50:12.563Z,100052.91
2023-02-19T12:52:43.056Z,100059.28
2023-02-19T12:55:28.731Z,100057.13
2023-02-19T12:57:59.082Z,100063.56
2023-02-19T13:00:33.602Z,100062.44
2023-02-19T13:03:12.242Z,100050.28
2023-02-19T13:05:46.779Z,100046.63
2023-02-19T13:08:23.308Z,100052.72
2023-02-19T13:10:55.413Z,100051.66
2023-02-19T13:13:31.807Z,100042.28
2023-02-19T13:16:04.020Z,100046.44
2023-02-19T13:18:38.201Z,100046.69
2023-02-19T13:21:06.141Z,100051.81
2023-02-19T13:23:56.931Z,100053.25
2023-02-19T13:26:33.043Z,100055.94
2023-02-19T13:29:27.656Z,100060.19
2023-02-19T13:32:21.891Z,100054.59
2023-02-19T13:35:12.740Z,100056.16
2023-02-19T13:37:39.773Z,100068.50
2023-02-19T13:40:26.703Z,100075.16
2023-02-19T13:42:57.014Z,100071.03
2023-02-19T13:45:31.791Z,100071.66
2023-02-19T13:48:00.740Z,100066.16
2023-02-19T13:50:28.994Z,100074.22
2023-02-19T13:52:57.244Z,100065.91
2023-02-19T13:55:51.919Z,100068.13
2023-02-19T13:58:33.782Z,100073.25
2023-02-19T14:01:02.109Z,100068.13
2023-02-19T14:03:30.488Z,100069.09
2023-02-19T14:05:59.124Z,100066.06
2023-02-19T14:08:52.573Z,100060.31
2023-02-19T14:11:39.099Z,100066.69
2023-02-19T14:14:28.329Z,100071.28
2023-02-19T14:17:09.937Z,100080.53
2023-02-19T14:19:42.679Z,100093.91
2023-02-19T14:22:45.020Z,100101.41
2023-02-19T14:25:29.234Z,100111.59
2023-02-19T14:28:17.184Z,100129.69
2023-02-19T14:31:07.034Z,100145.53
2023-02-19T14:33:36.169Z,100139.59
2023-02-19T14:36:24.331Z,100162.31
2023-02-19T14:38:55.002Z,100160.81
2023-02-19T14:41:23.351Z,100156.88
2023-02-19T14:43:54.089Z,100170.03
2023-02-19T14:46:34.132Z,100169.28
2023-02-19T14:49:11.374Z,100172.03
2023-02-19T14:51:45.231Z,100175.16
2023-02-19T14:54:20.887Z,100167.03
2023-02-19T14:56:51.753Z,100180.06
2023-02-19T14:59:27.163Z,100183.81
2023-02-19T15:01:55.624Z,100187.97
2023-02-19T15:04:25.318Z,100184.56
2023-02-19T15:06:56.536Z,100187.03
2023-02-19T15:09:32.927Z,100184.28
2023-02-19T15:12:00.582Z,100183.94
2023-02-19T15:14:30.579Z,100181.13
2023-02-19T15:17:02.382Z,100190.22
2023-02-19T15:19:35.005Z,100184.66
2023-02-19T15:22:02.530Z,100177.00
2023-02-19T15:24:29.797Z,100175.28
2023-02-19T15:26:56.445Z,100165.84
2023-02-19T15:29:26.510Z,100168.09
2023-02-19T15:31:58.340Z,100161.66
2023-02-19T15:34:27.368Z,100154.25
2023-02-19T15:37:00.616Z,100159.28
2023-02-19T15:39:48.703Z,100134.78
2023-02-19T15:42:18.911Z,100136.75
2023-02-19T15:45:16.446Z,100130.53
2023-02-19T15:48:02.733Z,100123.66
2023-02-19T15:50:31.940Z,100116.91
2023-02-19T15:53:01.511Z,100115.31
2023-02-19T15:55:38.910Z,100112.75
2023-02-19T15:58:29.955Z,100104.31
2023-02-19T16:01:27.809Z,100109.88
2023-02-19T16:03:55.346Z,100114.03
2023-02-19T16:06:24.542Z,100105.13
2023-02-19T16:09:05.597Z,100104.56
2023-02-19T16:11:38.347Z,100105.94
2023-02-19T16:14:23.514Z,100094.91
2023-02-19T16:16:54.997Z,100104.88
2023-02-19T16:19:30.606Z,100104.13
2023-02-19T16:21:58.643Z,100110.13
2023-02-19T16:24:35.281Z,100114.53
2023-02-19T16:27:02.667Z,100116.56
2023-02-19T16:29:31.552Z,100105.00
2023-02-19T16:32:01.800Z,100113.25
2023-02-19T16:34:47.553Z,100115.16
2023-02-19T16:37:56.288Z,100121.59
2023-02-19T16:40:34.780Z,100126.97
2023-02-19T16:43:24.788Z,100125.59
2023-02-19T16:45:51.219Z,100137.66
2023-02-19T16:48:21.274Z,100147.25
2023-02-19T16:50:47.736Z,100150.81
2023-02-19T16:53:20.600Z,100155.38
2023-02-19T16:55:47.340Z,100158.31
2023-02-19T16:58:14.253Z,100170.16
2023-02-19T17:00:40.782Z,100164.19
2023-02-19T17:03:13.989Z,100176.81
2023-02-19T17:05:41.150Z,100181.19
2023-02-19T17:08:34.281Z,100187.06
2023-02-19T17:11:06.981Z,100192.09
2023-02-19T17:13:33.883Z,100199.38
2023-02-19T17:16:00.379Z,100197.03
2023-02-19T17:18:28.092Z,100206.31
2023-02-19T17:21:00.264Z,100202.25
2023-02-19T17:23:26.885Z,100209.31
2023-02-19T17:25:53.794Z,100205.69
2023-02-19T17:28:20.235Z,100215.75
2023-02-19T17:30:47.299Z,100230.38
2023-02-19T17:33:13.855Z,100225.88
2023-02-19T17:35:42.516Z,100233.91
2023-02-19T17:38:11.547Z,100239.91
2023-02-19T17:40:38.308Z,100240.31
2023-02-19T17:43:05.928Z,100243.41
2023-02-19T17:45:33.373Z,100254.44
2023-02-19T17:48:00.835Z,100254.00
2023-02-19T17:50:31.240Z,100247.38
2023-02-19T17:52:58.517Z,100251.00
2023-02-19T17:55:26.776Z,100254.75
2023-02-19T17:57:53.520Z,100253.38
2023-02-19T18:00:23.602Z,100253.56
2023-02-19T18:02:50.637Z,100249.25
2023-02-19T18:05:17.826Z,100249.78
2023-02-19T18:07:45.567Z,100261.88
2023-02-19T18:10:13.051Z,100265.94
2023-02-19T18:12:40.449Z,100274.50
2023-02-19T18:15:09.280Z,100282.81
2023-02-19T18:17:36.302Z,100277.28
2023-02-19T18:20:04.981Z,100265.31
2023-02-19T18:22:32.729Z,100264.25
2023-02-19T18:24:59.459Z,100267.31
2023-02-19T18:27:26.162Z,100265.63
2023-02-19T18:29:55.955Z,100264.09
2023-02-19T18:32:24.531Z,100266.03
2023-02-19T18:34:54.288Z,100265.84
2023-02-19T18:37:21.896Z,100270.97
2023-02-19T18:39:48.489Z,100267.88
2023-02-19T18:42:15.264Z,100272.13
2023-02-19T18:44:43.669Z,100263.75
2023-02-19T18:47:11.450Z,100272.31
2023-02-19T18:49:38.619Z,100276.31
2023-02-19T18:52:05.932Z,100282.47
2023-02-19T18:54:32.824Z,100280.25
2023-02-19T18:57:03.692Z,100274.59
2023-02-19T18:59:30.902Z,100286.00
2023-02-19T19:01:57.733Z,100287.72
2023-02-19T19:04:24.158Z,100278.84
2023-02-19T19:06:51.832Z,100294.31
2023-02-19T19:09:18.321Z,100295.16
2023-02-19T19:11:46.566Z,100294.28
2023-02-19T19:14:13.473Z,100301.75
2023-02-19T19:16:40.535Z,100311.53
2023-02-19T19:19:07.364Z,100301.00
2023-02-19T19:21:33.790Z,100315.72
2023-02-19T19:24:00.640Z,100307.81
2023-02-19T19:26:27.074Z,100315.63
2023-02-19T19:28:53.627Z,100313.31
2023-02-19T19:31:21.277Z,100308.97
2023-02-19T19:33:48.938Z,100314.22
2023-02-19T19:36:20.202Z,100315.06
2023-02-19T19:38:47.137Z,100318.75
2023-02-19T19:41:18.336Z,100309.81
2023-02-19T19:43:46.076Z,100316.97
2023-02-19T19:46:16.486Z,100317.16
2023-02-19T19:48:43.022Z,100323.63
2023-02-19T19:51:09.644Z,100317.81
2023-02-19T19:53:36.645Z,100315.91
2023-02-19T19:56:03.394Z,100310.84
2023-02-19T19:58:29.868Z,100311.81
2023-02-19T20:00:56.891Z,100319.66
2023-02-19T20:03:23.345Z,100315.06
2023-02-19T20:05:52.684Z,100319.72
2023-02-19T20:08:19.355Z,100329.94
2023-02-19T20:10:46.126Z,100322.41
2023-02-19T20:13:16.980Z,100322.31
2023-02-19T20:15:43.705Z,100318.13
2023-02-19T20:18:10.219Z,100319.06
2023-02-19T20:20:36.707Z,100312.97
2023-02-19T20:23:03.101Z,100310.88
2023-02-19T20:25:29.896Z,100314.91
2023-02-19T20:27:56.519Z,100319.06
2023-02-19T20:30:25.330Z,100317.38
2023-02-19T20:32:53.370Z,100324.25
2023-02-19T20:35:20.721Z,100326.59
2023-02-19T20:37:47.978Z,100337.19
2023-02-19T20:40:17.792Z,100342.34
2023-02-19T20:42:44.518Z,100347.09
2023-02-19T20:45:11.060Z,100349.88
2023-02-19T20:47:40.301Z,100347.47
2023-02-19T20:50:07.371Z,100343.88
2023-02-19T20:52:34.261Z,100331.38
2023-02-19T20:55:01.108Z,100344.06
2023-02-19T20:57:27.610Z,100344.94
2023-02-19T20:59:54.419Z,100351.59
2023-02-19T21:02:27.615Z,100349.00
2023-02-19T21:04:54.288Z,100341.84
2023-02-19T21:07:20.784Z,100354.84
2023-02-19T21:09:47.546Z,100363.03
2023-02-19T21:12:13.930Z,100359.41
2023-02-19T21:14:41.128Z,100359.69
2023-02-19T21:17:07.663Z,100354.34
2023-02-19T21:19:34.661Z,100357.38
2023-02-19T21:22:01.543Z,100358.84
2023-02-19T21:24:28.036Z,100364.38
2023-02-19T21:26:54.597Z,100370.19
2023-02-19T21:29:22.652Z,100372.63
2023-02-19T21:31:52.151Z,100376.81
2023-02-19T21:34:21.573Z,100377.41
2023-02-19T21:36:48.532Z,100379.03
2023-02-19T21:39:17.972Z,100377.97
2023-02-19T21:41:44.546Z,100384.38
2023-02-19T21:44:11.442Z,100389.03
2023-02-19T21:46:37.952Z,100387.31
2023-02-19T21:49:05.807Z,100386.75
2023-02-19T21:51:41.991Z,100386.91
2023-02-19T21:54:13.135Z,100379.03
2023-02-19T21:56:39.541Z,100376.81
2023-02-19T21:59:06.292Z,100387.41
2023-02-19T22:01:35.104Z,100389.22
2023-02-19T22:04:02.329Z,100390.25
2023-02-19T22:06:30.763Z,100392.25
2023-02-19T22:08:58.632Z,100395.88
2023-02-19T22:11:27.405Z,100393.00
2023-02-19T22:13:53.818Z,100394.06
2023-02-19T22:16:21.077Z,100393.41
2023-02-19T22:18:58.564Z,100399.56
2023-02-19T22:21:27.869Z,100400.63
2023-02-19T22:23:54.980Z,100393.41
2023-02-19T22:26:25.877Z,100389.97
2023-02-19T22:28:52.886Z,100402.44
2023-02-19T22:31:23.024Z,100397.19
2023-02-19T22:33:50.236Z,100393.47
2023-02-19T22:36:25.481Z,100395.75
2023-02-19T22:38:52.586Z,100392.34
2023-02-19T22:41:20.269Z,100401.75
2023-02-19T22:43:48.269Z,100391.84
2023-02-19T22:46:23.755Z,100394.66
2023-02-19T22:48:51.013Z,100402.84
2023-02-19T22:51:20.457Z,100403.97
2023-02-19T22:53:54.995Z,100402.25
2023-02-19T22:56:23.854Z,100403.66
2023-02-19T22:58:51.097Z,100397.91
2023-02-19T23:01:18.492Z,100399.25
2023-02-19T23:03:50.310Z,100409.16
2023-02-19T23:06:21.060Z,100407.19
2023-02-19T23:08:47.530Z,100395.94
2023-02-19T23:11:21.731Z,100403.34
2023-02-19T23:13:48.532Z,100405.69
2023-02-19T23:16:15.505Z,100399.75
2023-02-19T23:18:43.371Z,100390.47
2023-02-19T23:21:10.208Z,100381.97
2023-02-19T23:23:36.785Z,100378.72
2023-02-19T23:26:04.841Z,100373.47
2023-02-19T23:28:31.470Z,100380.50
2023-02-19T23:30:58.598Z,100374.66
2023-02-19T23:33:25.241Z,100369.00
2023-02-19T23:35:52.049Z,100374.47
2023-02-19T23:38:18.778Z,100386.34
2023-02-19T23:40:45.436Z,100394.19
2023-02-19T23:43:13.248Z,100378.72
2023-02-19T23:45:39.709Z,100376.22
2023-02-19T23:48:06.272Z,100394.22
2023-02-19T23:50:32.750Z,100388.13
2023-02-19T23:52:59.756Z,100392.38
2023-02-19T23:55:26.693Z,100390.03
2023-02-19T23:57:53.952Z,100385.75
